Time;durP1;ratioP1;P1;durP2;ratioP2;P2;SDS_P1;SDS_P2;PMS_P1;PMS_P2;Temp;Humidity;BMP_temperature;BMP_pressure;BME280_temperature;BME280_humidity;BME280_pressure;Samples;Min_cycle;Max_cycle;Signal;HPM_P1;HPM_P2
2021/03/16 00:01:11;;;;;;;0.85;0.73;;;;;;;8.00;55.84;98003.19;5048920;28;20026;-66
2021/03/16 00:03:37;;;;;;;1.08;0.80;;;;;;;8.01;55.30;98000.38;5043989;28;20084;-72
2021/03/16 00:06:05;;;;;;;1.25;0.80;;;;;;;7.92;55.42;97982.25;5045178;28;20136;-66
2021/03/16 00:08:30;;;;;;;1.00;0.90;;;;;;;7.98;55.71;97989.41;5046420;28;20319;-71
2021/03/16 00:10:56;;;;;;;1.30;1.00;;;;;;;7.85;55.60;97991.91;5045860;28;20124;-66
2021/03/16 00:13:21;;;;;;;1.13;1.02;;;;;;;7.92;55.75;98004.13;5049602;28;20225;-66
2021/03/16 00:15:47;;;;;;;1.85;1.00;;;;;;;8.05;55.64;97995.53;5061838;28;20029;-66
2021/03/16 00:18:15;;;;;;;1.15;1.00;;;;;;;8.00;55.59;97993.47;5057675;28;20037;-66
2021/03/16 00:20:45;;;;;;;2.35;1.25;;;;;;;8.10;56.27;97995.78;5042884;28;20326;-66
2021/03/16 00:23:12;;;;;;;1.55;1.02;;;;;;;7.79;56.77;97990.00;5045461;28;20042;-66
2021/03/16 00:25:39;;;;;;;1.13;0.90;;;;;;;7.87;56.01;97995.16;5043315;28;20048;-66
2021/03/16 00:28:06;;;;;;;1.35;1.02;;;;;;;7.89;56.30;97991.34;5045367;28;20029;-72
2021/03/16 00:30:32;;;;;;;3.35;2.13;;;;;;;8.08;55.69;97992.53;5063846;28;20167;-72
2021/03/16 00:32:57;;;;;;;2.63;1.20;;;;;;;8.01;56.76;97989.00;5042995;28;20025;-71
2021/03/16 00:35:23;;;;;;;1.15;1.00;;;;;;;7.99;56.42;97983.94;5044528;28;20128;-71
2021/03/16 00:37:49;;;;;;;4.07;1.35;;;;;;;8.05;56.19;97989.47;5045288;28;20029;-66
2021/03/16 00:40:14;;;;;;;5.45;2.35;;;;;;;7.91;56.16;97978.78;5061399;28;20037;-71
2021/03/16 00:42:40;;;;;;;2.83;1.30;;;;;;;8.04;55.67;97987.81;5059087;28;20067;-66
2021/03/16 00:45:07;;;;;;;1.58;1.02;;;;;;;7.96;56.27;97988.75;5053462;28;20032;-66
2021/03/16 00:47:33;;;;;;;1.50;1.00;;;;;;;8.01;55.81;97981.94;5060996;28;20096;-66
2021/03/16 00:50:00;;;;;;;1.90;1.00;;;;;;;7.98;55.86;97984.13;5044799;28;20049;-66
2021/03/16 00:52:26;;;;;;;2.42;0.95;;;;;;;8.02;55.79;97982.75;5041987;28;20025;-66
2021/03/16 00:54:51;;;;;;;3.28;0.85;;;;;;;8.06;55.69;97972.63;5046676;28;20087;-66
2021/03/16 00:57:17;;;;;;;0.88;0.80;;;;;;;7.86;56.13;97962.72;5061123;28;20029;-66
2021/03/16 00:59:42;;;;;;;0.90;0.80;;;;;;;7.92;56.60;97977.78;5057468;28;20255;-67
2021/03/16 01:02:08;;;;;;;0.90;0.80;;;;;;;7.99;55.66;97977.84;5043542;28;20025;-71
2021/03/16 01:04:34;;;;;;;1.15;0.80;;;;;;;7.91;56.25;97973.53;5041482;28;20039;-71
2021/03/16 01:07:00;;;;;;;0.80;0.77;;;;;;;7.92;56.07;97980.41;5045992;28;20040;-71
2021/03/16 01:09:25;;;;;;;1.95;1.13;;;;;;;7.93;56.44;97981.22;5042176;28;20037;-71
2021/03/16 01:11:51;;;;;;;2.85;1.23;;;;;;;8.05;55.94;97971.00;5046600;28;20036;-72
2021/03/16 01:14:16;;;;;;;1.00;0.90;;;;;;;8.07;56.17;97975.09;5042509;28;20088;-73
2021/03/16 01:16:42;;;;;;;2.78;1.00;;;;;;;8.07;55.99;97967.19;5044927;28;20041;-72
2021/03/16 01:19:08;;;;;;;1.23;0.90;;;;;;;8.17;55.39;97961.59;5043414;28;20055;-72
2021/03/16 01:21:33;;;;;;;1.10;0.82;;;;;;;7.88;55.66;97952.00;5054058;28;20075;-72
2021/03/16 01:23:59;;;;;;;1.92;0.90;;;;;;;7.83;56.38;97957.84;5060253;28;20373;-72
2021/03/16 01:26:24;;;;;;;1.67;1.10;;;;;;;7.98;55.94;97973.56;5057315;28;20059;-66
2021/03/16 01:28:50;;;;;;;0.88;0.77;;;;;;;7.97;56.09;97954.31;5061503;28;20029;-72
2021/03/16 01:31:16;;;;;;;1.10;1.00;;;;;;;8.02;56.03;97969.56;5053336;28;20073;-66
2021/03/16 01:33:41;;;;;;;2.17;1.60;;;;;;;8.16;55.85;97970.50;5045429;28;20033;-65
2021/03/16 01:36:07;;;;;;;0.80;0.80;;;;;;;8.01;55.62;97979.28;5043233;28;20033;-66
2021/03/16 01:38:32;;;;;;;0.77;0.70;;;;;;;7.99;55.88;97975.22;5049850;28;20034;-66
2021/03/16 01:40:58;;;;;;;1.20;0.85;;;;;;;7.99;55.45;97967.31;5046627;28;20028;-66
2021/03/16 01:43:27;;;;;;;3.00;1.73;;;;;;;7.94;55.81;97972.31;5047947;28;20059;-66
2021/03/16 01:45:53;;;;;;;5.72;2.85;;;;;;;7.69;56.61;97954.25;5048821;28;20033;-66
2021/03/16 01:48:31;;;;;;;14.23;5.25;;;;;;;7.74;56.22;97955.50;5047264;28;20422;-66
2021/03/16 01:50:57;;;;;;;16.73;5.53;;;;;;;7.85;55.58;97960.28;5048350;28;20099;-66
2021/03/16 01:53:22;;;;;;;9.75;4.10;;;;;;;7.94;56.44;97964.41;5045074;28;20045;-66
2021/03/16 01:55:49;;;;;;;2.17;1.60;;;;;;;7.80;56.09;97960.84;5050918;28;20040;-66
2021/03/16 01:58:15;;;;;;;1.60;1.02;;;;;;;7.75;56.85;97967.69;5045218;28;20048;-71
2021/03/16 02:00:42;;;;;;;1.13;1.02;;;;;;;7.80;56.88;97970.56;5047564;28;20029;-66
2021/03/16 02:03:09;;;;;;;1.10;1.00;;;;;;;7.93;55.82;97966.25;5048458;28;20318;-66
2021/03/16 02:05:35;;;;;;;1.40;1.10;;;;;;;7.80;56.06;97967.94;5046683;28;20136;-66
2021/03/16 02:08:38;;;;;;;1.65;0.80;;;;;;;7.60;56.90;97967.72;5047283;28;20369;-66
2021/03/16 02:11:26;;;;;;;1.13;1.00;;;;;;;7.68;57.15;97975.50;5048158;28;20029;-66
2021/03/16 02:14:05;;;;;;;7.30;1.10;;;;;;;7.77;56.36;97965.66;5047847;28;20045;-66
2021/03/16 02:16:49;;;;;;;1.42;1.17;;;;;;;7.72;56.88;97973.31;5048018;28;20296;-66
2021/03/16 02:19:45;;;;;;;0.98;0.85;;;;;;;7.68;57.65;97964.97;5046296;28;20361;-65
2021/03/16 02:22:11;;;;;;;1.00;0.90;;;;;;;7.76;56.72;97972.75;5047603;28;20103;-66
2021/03/16 02:25:07;;;;;;;1.67;0.95;;;;;;;7.88;56.34;97975.72;5063663;28;20035;-66
2021/03/16 02:27:45;;;;;;;1.85;1.00;;;;;;;7.94;56.61;97980.22;5054933;28;20036;-66
2021/03/16 02:30:12;;;;;;;3.95;1.52;;;;;;;7.95;56.51;97966.06;5050455;28;20053;-66
2021/03/16 02:32:42;;;;;;;1.95;1.20;;;;;;;8.09;56.06;97980.97;5043582;28;20034;-66
2021/03/16 02:35:10;;;;;;;1.05;0.90;;;;;;;7.91;56.61;97986.69;5046436;28;20029;-71
2021/03/16 02:37:37;;;;;;;1.23;0.70;;;;;;;7.83;56.54;97978.09;5046466;28;20331;-66
2021/03/16 02:40:07;;;;;;;1.33;0.90;;;;;;;7.70;57.09;97981.41;5046697;28;20029;-66
2021/03/16 02:42:34;;;;;;;4.80;2.42;;;;;;;7.65;57.04;97979.34;5047190;28;20032;-66
2021/03/16 02:45:02;;;;;;;1.75;1.20;;;;;;;7.80;57.39;97979.28;5045248;28;20021;-66
2021/03/16 02:47:28;;;;;;;1.27;1.00;;;;;;;7.87;56.44;97976.72;5046893;28;20360;-66
2021/03/16 02:49:54;;;;;;;1.30;1.17;;;;;;;7.85;56.63;97971.63;5044340;28;20033;-66
2021/03/16 02:52:21;;;;;;;1.10;0.80;;;;;;;7.74;56.99;97976.59;5045675;28;20028;-66
2021/03/16 02:54:49;;;;;;;2.00;1.02;;;;;;;7.69;57.49;97979.78;5045472;28;20037;-66
2021/03/16 02:57:16;;;;;;;1.00;0.90;;;;;;;7.61;57.10;97988.63;5044369;28;20022;-66
2021/03/16 02:59:44;;;;;;;1.65;0.93;;;;;;;7.65;57.28;97970.63;5054051;28;20099;-66
2021/03/16 03:02:11;;;;;;;0.70;0.68;;;;;;;7.60;57.48;97986.16;5063198;28;20043;-66
2021/03/16 03:04:40;;;;;;;1.35;0.80;;;;;;;7.60;57.91;97970.34;5054515;28;20028;-73
2021/03/16 03:07:11;;;;;;;1.38;1.10;;;;;;;7.46;57.77;97992.28;5075469;28;20136;-72
2021/03/16 03:09:37;;;;;;;0.90;0.70;;;;;;;7.53;58.25;97994.00;5045445;28;20134;-72
2021/03/16 03:12:05;;;;;;;2.30;0.88;;;;;;;7.48;58.27;97992.91;5046966;28;20335;-66
2021/03/16 03:14:32;;;;;;;1.42;0.90;;;;;;;7.30;58.78;97974.88;5047762;28;20021;-66
2021/03/16 03:16:58;;;;;;;0.95;0.65;;;;;;;7.71;58.55;98005.94;5044832;28;20063;-66
2021/03/16 03:19:24;;;;;;;0.70;0.70;;;;;;;7.60;58.31;98004.59;5047749;28;20382;-66
2021/03/16 03:21:57;;;;;;;0.70;0.70;;;;;;;7.66;58.30;98014.41;5043125;28;20359;-66
2021/03/16 03:24:30;;;;;;;3.00;0.70;;;;;;;7.58;58.37;98017.13;5050303;28;20084;-66
2021/03/16 03:26:59;;;;;;;1.15;0.70;;;;;;;7.74;58.85;98014.28;5062863;28;20406;-66
2021/03/16 03:29:26;;;;;;;2.22;0.70;;;;;;;7.61;58.75;97998.34;5054002;28;20021;-72
2021/03/16 03:31:53;;;;;;;0.90;0.80;;;;;;;7.63;59.04;98006.88;5046111;28;20030;-72
2021/03/16 03:34:19;;;;;;;2.38;1.30;;;;;;;7.47;60.08;98007.09;5047354;28;20029;-66
2021/03/16 03:36:51;;;;;;;5.43;2.45;;;;;;;7.71;60.01;98000.66;5044744;28;20063;-71
2021/03/16 03:39:18;;;;;;;9.20;2.92;;;;;;;7.69;59.30;98001.66;5044709;28;20064;-66
2021/03/16 03:41:44;;;;;;;14.07;5.05;;;;;;;7.75;58.66;97989.56;5044360;28;20037;-72
2021/03/16 03:44:13;;;;;;;13.80;4.30;;;;;;;7.68;59.06;98004.50;5047079;28;20084;-72
2021/03/16 03:46:40;;;;;;;11.48;4.28;;;;;;;7.67;58.71;98000.22;5044306;28;20045;-71
2021/03/16 03:49:07;;;;;;;1.45;1.15;;;;;;;7.54;59.48;97995.63;5044864;28;20036;-71
2021/03/16 03:51:34;;;;;;;3.35;1.85;;;;;;;7.62;59.12;97997.31;5049395;28;20307;-71
2021/03/16 03:54:01;;;;;;;0.77;0.77;;;;;;;7.37;59.63;97994.22;5045145;28;20335;-72
2021/03/16 03:56:31;;;;;;;0.98;0.85;;;;;;;7.50;59.50;98001.44;5047712;28;20029;-72
2021/03/16 03:59:02;;;;;;;1.60;0.68;;;;;;;7.35;60.46;98012.00;5042733;28;20048;-72
2021/03/16 04:01:30;;;;;;;0.88;0.85;;;;;;;7.36;60.31;98003.09;5078770;28;20117;-66
2021/03/16 04:03:56;;;;;;;1.10;1.00;;;;;;;7.51;60.40;97998.63;5042415;28;20056;-66
2021/03/16 04:06:24;;;;;;;1.58;1.17;;;;;;;7.52;59.97;98010.78;5053422;28;20319;-71
2021/03/16 04:08:51;;;;;;;3.85;1.10;;;;;;;7.45;60.43;98015.16;5052394;28;20029;-66
2021/03/16 04:11:19;;;;;;;1.05;0.95;;;;;;;7.63;60.32;98014.75;5046132;28;20048;-71
2021/03/16 04:13:46;;;;;;;1.13;1.02;;;;;;;7.59;60.35;98027.50;5046932;28;20105;-71
2021/03/16 04:16:12;;;;;;;1.23;1.10;;;;;;;7.66;59.65;98027.56;5043457;28;20240;-71
2021/03/16 04:18:39;;;;;;;1.52;1.20;;;;;;;7.71;59.71;98016.47;5044289;28;20236;-72
2021/03/16 04:21:05;;;;;;;4.97;1.40;;;;;;;7.46;60.54;98000.19;5046350;28;20041;-72
2021/03/16 04:23:32;;;;;;;2.00;1.08;;;;;;;7.57;60.77;98032.13;5044631;28;20029;-72
2021/03/16 04:25:58;;;;;;;2.70;1.27;;;;;;;7.61;60.01;98008.88;5045349;28;20104;-72
2021/03/16 04:28:25;;;;;;;2.53;1.23;;;;;;;7.63;59.95;98015.59;5043495;28;20033;-66
2021/03/16 04:30:54;;;;;;;5.85;1.17;;;;;;;7.52;60.43;98016.06;5042371;28;20131;-72
2021/03/16 04:33:20;;;;;;;1.15;0.90;;;;;;;7.50;60.32;98028.59;5078625;28;20056;-71
2021/03/16 04:35:47;;;;;;;3.35;1.67;;;;;;;7.50;59.93;98018.06;5040657;28;20061;-66
2021/03/16 04:38:13;;;;;;;0.70;0.70;;;;;;;7.49;59.92;98024.34;5042720;28;20219;-71
2021/03/16 04:40:39;;;;;;;1.13;1.02;;;;;;;7.32;60.48;98017.63;5047207;28;20100;-66
2021/03/16 04:43:06;;;;;;;2.28;1.00;;;;;;;7.60;60.43;98029.13;5043683;28;20262;-66
2021/03/16 04:45:31;;;;;;;1.42;0.82;;;;;;;7.63;59.66;98039.28;5043132;28;20312;-66
2021/03/16 04:47:57;;;;;;;1.40;1.00;;;;;;;7.51;59.83;98038.13;5046079;28;20044;-67
2021/03/16 04:50:22;;;;;;;1.33;1.10;;;;;;;7.58;59.46;98039.03;5061002;28;20105;-67
2021/03/16 04:52:50;;;;;;;2.28;1.52;;;;;;;7.72;58.85;98033.91;5052202;28;20029;-66
2021/03/16 04:55:16;;;;;;;4.53;2.60;;;;;;;7.75;58.94;98039.63;5041249;28;20041;-66
2021/03/16 04:57:41;;;;;;;3.78;2.25;;;;;;;7.68;58.88;98042.19;5049801;28;20063;-71
2021/03/16 05:00:07;;;;;;;3.30;1.67;;;;;;;7.50;59.13;98048.84;5041539;28;20064;-66
2021/03/16 05:02:33;;;;;;;4.18;1.88;;;;;;;7.78;59.23;98054.25;5044639;28;20176;-66
2021/03/16 05:04:58;;;;;;;1.27;1.05;;;;;;;7.73;59.08;98051.34;5044844;28;20032;-66
2021/03/16 05:07:24;;;;;;;4.78;1.08;;;;;;;7.60;59.19;98052.84;5044146;28;20327;-66
2021/03/16 05:09:49;;;;;;;2.10;0.90;;;;;;;7.88;59.02;98060.84;5043914;28;20116;-66
2021/03/16 05:12:15;;;;;;;0.95;0.75;;;;;;;7.88;59.66;98065.31;5044366;28;20261;-66
2021/03/16 05:14:40;;;;;;;2.45;0.80;;;;;;;8.08;58.99;98060.25;5050844;28;20021;-66
2021/03/16 05:17:06;;;;;;;1.13;0.90;;;;;;;7.86;59.35;98062.84;5060614;28;20319;-66
2021/03/16 05:19:31;;;;;;;1.52;0.88;;;;;;;7.95;59.93;98063.56;5050213;28;20259;-66
2021/03/16 05:21:57;;;;;;;5.22;0.90;;;;;;;8.01;58.88;98073.38;5051569;28;20025;-66
2021/03/16 05:24:22;;;;;;;1.35;0.93;;;;;;;8.10;58.88;98082.78;5059542;28;20025;-66
2021/03/16 05:26:48;;;;;;;4.65;1.20;;;;;;;8.16;58.85;98078.59;5061664;28;20052;-71
2021/03/16 05:29:14;;;;;;;1.85;1.10;;;;;;;8.41;58.39;98077.28;5057253;28;20217;-66
2021/03/16 05:31:39;;;;;;;3.83;1.35;;;;;;;8.37;58.37;98085.75;5058535;28;20029;-71
2021/03/16 05:34:05;;;;;;;2.15;1.13;;;;;;;8.12;58.26;98082.59;5057982;28;20033;-66
2021/03/16 05:36:30;;;;;;;1.95;1.02;;;;;;;7.76;58.91;98080.78;5060242;28;20036;-71
2021/03/16 05:38:56;;;;;;;2.13;1.40;;;;;;;7.97;58.17;98090.56;5058376;28;20108;-71
2021/03/16 05:41:21;;;;;;;2.65;1.02;;;;;;;8.02;58.70;98085.53;5043538;28;20036;-71
2021/03/16 05:43:47;;;;;;;2.35;1.40;;;;;;;8.14;57.52;98081.41;5040760;28;20016;-72
2021/03/16 05:46:13;;;;;;;2.97;0.95;;;;;;;7.91;57.77;98075.47;5047627;28;20199;-72
2021/03/16 05:48:40;;;;;;;4.25;1.10;;;;;;;7.85;57.60;98081.50;5042623;28;20021;-72
2021/03/16 05:51:07;;;;;;;3.35;1.90;;;;;;;7.98;57.12;98077.19;5045303;28;20096;-71
2021/03/16 05:53:33;;;;;;;5.38;1.05;;;;;;;8.04;56.65;98069.53;5042712;28;20273;-71
2021/03/16 05:55:59;;;;;;;5.88;1.95;;;;;;;8.16;56.82;98087.31;5045366;28;20036;-71
2021/03/16 05:58:25;;;;;;;5.47;1.02;;;;;;;8.23;56.73;98076.84;5042463;28;20682;-67
2021/03/16 06:00:51;;;;;;;6.90;2.22;;;;;;;8.49;55.74;98073.69;5043176;28;20124;-71
2021/03/16 06:03:17;;;;;;;1.60;1.40;;;;;;;8.28;55.61;98080.53;5044135;28;20025;-66
2021/03/16 06:05:43;;;;;;;2.63;1.35;;;;;;;8.49;55.39;98087.69;5047374;28;20255;-66
2021/03/16 06:08:08;;;;;;;6.85;2.03;;;;;;;8.45;55.17;98097.00;5041041;28;20025;-66
2021/03/16 06:10:34;;;;;;;3.42;1.40;;;;;;;8.57;54.34;98079.66;5044077;28;20029;-72
2021/03/16 06:13:13;;;;;;;5.80;2.08;;;;;;;8.76;55.35;98096.66;5044508;28;20414;-66
2021/03/16 06:15:40;;;;;;;2.50;1.65;;;;;;;8.90;53.48;98094.94;5044285;28;20273;-66
2021/03/16 06:18:06;;;;;;;7.63;1.40;;;;;;;8.83;53.80;98091.44;5044706;28;21112;-67
2021/03/16 06:20:36;;;;;;;1.58;0.88;;;;;;;9.06;52.78;98089.38;5073534;28;20072;-66
2021/03/16 06:23:34;;;;;;;3.28;1.10;;;;;;;9.14;52.48;98102.44;5051884;28;20048;-66
2021/03/16 06:26:11;;;;;;;2.60;1.50;;;;;;;9.05;52.13;98076.38;5058976;28;20029;-71
2021/03/16 06:28:38;;;;;;;2.33;1.05;;;;;;;9.02;52.65;98109.25;5046781;28;20033;-66
2021/03/16 06:31:04;;;;;;;3.17;1.20;;;;;;;9.28;52.63;98122.63;5055749;28;20013;-66
2021/03/16 06:33:31;;;;;;;1.25;0.70;;;;;;;9.23;51.49;98121.59;5047898;28;20160;-66
2021/03/16 06:36:02;;;;;;;1.63;1.00;;;;;;;9.01;51.89;98107.63;5052442;28;20067;-71
2021/03/16 06:38:29;;;;;;;9.95;1.70;;;;;;;8.89;52.60;98125.78;5045219;28;20072;-66
2021/03/16 06:41:06;;;;;;;5.30;1.02;;;;;;;8.83;52.61;98133.66;5058909;28;20206;-72
2021/03/16 06:43:31;;;;;;;1.67;1.02;;;;;;;8.85;52.67;98129.00;5063307;28;20368;-72
2021/03/16 06:45:57;;;;;;;5.05;1.00;;;;;;;8.67;53.00;98134.75;5045428;28;20053;-71
2021/03/16 06:48:25;;;;;;;2.03;0.90;;;;;;;8.59;52.75;98137.50;5047689;28;20025;-71
2021/03/16 06:50:54;;;;;;;3.17;0.77;;;;;;;8.66;52.96;98135.75;5047180;28;20029;-71
2021/03/16 06:53:28;;;;;;;8.38;1.08;;;;;;;8.62;52.98;98132.66;5083697;28;20471;-71
2021/03/16 06:56:00;;;;;;;2.17;1.00;;;;;;;8.71;52.73;98128.06;5052142;28;20032;-72
2021/03/16 06:58:31;;;;;;;5.32;1.45;;;;;;;8.98;52.36;98138.84;5053488;28;20104;-73
2021/03/16 07:01:03;;;;;;;3.25;1.02;;;;;;;8.86;51.55;98142.00;5053957;28;20055;-66
2021/03/16 07:03:30;;;;;;;2.58;1.15;;;;;;;9.04;52.24;98148.66;5052991;28;20029;-66
2021/03/16 07:06:08;;;;;;;1.55;0.90;;;;;;;9.08;51.53;98147.25;5055376;28;20130;-66
2021/03/16 07:08:35;;;;;;;2.65;1.35;;;;;;;9.30;51.33;98151.50;5052140;28;20053;-72
2021/03/16 07:11:03;;;;;;;1.70;0.73;;;;;;;9.22;50.70;98136.59;5054586;28;20041;-72
2021/03/16 07:13:31;;;;;;;2.47;1.40;;;;;;;9.50;50.93;98144.53;5051867;28;20028;-72
2021/03/16 07:15:57;;;;;;;4.45;0.70;;;;;;;9.42;50.17;98144.69;5062078;28;20095;-72
2021/03/16 07:18:23;;;;;;;9.65;1.20;;;;;;;9.33;50.46;98140.53;5059332;28;20033;-72
2021/03/16 07:20:51;;;;;;;3.72;1.30;;;;;;;9.18;51.10;98145.09;5054246;28;20052;-66
2021/03/16 07:23:20;;;;;;;5.18;0.98;;;;;;;9.08;50.34;98132.25;5054594;28;20275;-66
2021/03/16 07:25:47;;;;;;;1.58;0.93;;;;;;;9.12;51.61;98153.78;5054706;28;20043;-66
2021/03/16 07:28:12;;;;;;;2.30;1.20;;;;;;;9.00;51.73;98148.22;5055193;28;20214;-67
2021/03/16 07:30:38;;;;;;;6.35;1.73;;;;;;;8.98;50.28;98150.22;5053109;28;20025;-66
2021/03/16 07:33:04;;;;;;;1.70;1.02;;;;;;;9.23;50.24;98158.56;5054786;28;20016;-67
2021/03/16 07:35:34;;;;;;;3.53;1.40;;;;;;;9.36;51.00;98160.47;5052257;28;20214;-66
2021/03/16 07:38:02;;;;;;;4.13;1.23;;;;;;;9.35;50.80;98170.22;5053460;28;20021;-66
2021/03/16 07:40:27;;;;;;;7.32;1.50;;;;;;;9.35;50.32;98154.38;5053289;28;20025;-66
2021/03/16 07:42:53;;;;;;;7.45;1.20;;;;;;;9.21;50.38;98163.22;5054034;28;20051;-72
2021/03/16 07:45:26;;;;;;;2.47;1.50;;;;;;;9.40;50.62;98159.94;5053785;28;20049;-72
2021/03/16 07:47:52;;;;;;;4.15;0.85;;;;;;;9.28;49.98;98156.97;5059170;28;20740;-73
2021/03/16 07:50:26;;;;;;;1.40;1.00;;;;;;;9.24;50.27;98161.00;5061287;28;20029;-66
2021/03/16 07:52:52;;;;;;;4.90;1.00;;;;;;;9.30;51.25;98175.25;5055428;28;20048;-72
2021/03/16 07:55:30;;;;;;;5.18;1.25;;;;;;;9.49;50.62;98163.22;5052787;28;20041;-66
2021/03/16 07:58:10;;;;;;;2.42;0.90;;;;;;;9.62;50.42;98160.66;5052170;28;20225;-66
2021/03/16 08:00:36;;;;;;;7.10;1.30;;;;;;;9.67;49.76;98166.19;5052969;28;20079;-66
2021/03/16 08:03:06;;;;;;;2.78;1.27;;;;;;;9.78;48.70;98159.53;5051621;28;20031;-66
2021/03/16 08:05:46;;;;;;;2.05;1.00;;;;;;;9.82;49.06;98174.81;5052998;28;20388;-66
2021/03/16 08:08:25;;;;;;;2.20;1.00;;;;;;;10.08;48.50;98163.53;5079009;28;20049;-66
2021/03/16 08:10:51;;;;;;;6.30;2.40;;;;;;;10.07;49.16;98153.16;5052473;28;20052;-66
2021/03/16 08:13:19;;;;;;;1.35;0.70;;;;;;;10.26;48.32;98164.88;5053838;28;20020;-72
2021/03/16 08:15:47;;;;;;;6.53;1.05;;;;;;;10.28;47.30;98171.59;5054545;28;20037;-71
2021/03/16 08:18:26;;;;;;;2.47;0.95;;;;;;;10.27;47.23;98166.50;5052412;28;20037;-69
2021/03/16 08:20:52;;;;;;;4.22;0.90;;;;;;;10.17;46.68;98175.59;5053171;28;20029;-75
2021/03/16 08:23:18;;;;;;;1.52;1.13;;;;;;;10.37;46.76;98159.00;5052856;28;20059;-75
2021/03/16 08:25:47;;;;;;;1.00;0.90;;;;;;;10.45;47.39;98172.88;5052275;28;20041;-68
2021/03/16 08:28:16;;;;;;;3.15;1.00;;;;;;;10.60;46.46;98167.44;5053152;28;20323;-68
2021/03/16 08:30:42;;;;;;;1.33;0.98;;;;;;;10.54;47.19;98173.53;5057873;28;20051;-69
2021/03/16 08:33:14;;;;;;;1.63;1.08;;;;;;;10.50;46.13;98175.75;5055270;28;20213;-69
2021/03/16 08:35:53;;;;;;;1.30;0.90;;;;;;;10.62;45.26;98173.34;5052374;28;20036;-69
2021/03/16 08:38:29;;;;;;;3.88;0.98;;;;;;;10.61;45.91;98150.53;5053689;28;21296;-68
2021/03/16 08:41:06;;;;;;;4.00;1.20;;;;;;;10.65;45.54;98172.94;5051491;28;21955;-68
2021/03/16 08:43:33;;;;;;;2.25;0.95;;;;;;;10.74;45.68;98170.91;5049620;28;20096;-74
2021/03/16 08:45:59;;;;;;;3.47;0.90;;;;;;;10.63;45.06;98176.81;5051890;28;20025;-68
2021/03/16 08:48:27;;;;;;;5.88;0.80;;;;;;;10.78;44.33;98175.59;5054655;28;20036;-74
2021/03/16 08:50:54;;;;;;;5.78;0.93;;;;;;;10.61;44.78;98169.06;5059007;28;20223;-68
2021/03/16 08:53:22;;;;;;;3.92;1.00;;;;;;;10.95;45.63;98169.91;5057899;28;20060;-69
2021/03/16 08:55:58;;;;;;;10.18;1.30;;;;;;;11.05;44.65;98165.03;5061579;28;20185;-76
2021/03/16 08:58:24;;;;;;;3.22;1.40;;;;;;;10.92;44.03;98173.78;5058015;28;20044;-68
2021/03/16 09:00:50;;;;;;;9.93;1.40;;;;;;;10.93;43.42;98162.19;5056737;28;20041;-68
2021/03/16 09:03:27;;;;;;;7.22;2.70;;;;;;;10.91;43.66;98171.34;5059726;28;20025;-68
2021/03/16 09:05:55;;;;;;;14.13;1.50;;;;;;;10.85;44.17;98168.50;5058996;28;20087;-68
2021/03/16 09:08:22;;;;;;;6.57;1.13;;;;;;;10.67;43.68;98181.50;5058193;28;20051;-68
2021/03/16 09:10:48;;;;;;;4.40;1.00;;;;;;;10.74;43.98;98179.69;5058656;28;20079;-68
2021/03/16 09:13:24;;;;;;;3.22;1.02;;;;;;;10.79;44.18;98177.25;5059981;28;20039;-75
2021/03/16 09:15:50;;;;;;;2.47;1.30;;;;;;;10.80;45.00;98183.34;5060203;28;20287;-75
2021/03/16 09:18:16;;;;;;;12.50;1.38;;;;;;;10.91;45.00;98190.69;5057816;28;20021;-75
2021/03/16 09:20:41;;;;;;;4.53;1.20;;;;;;;10.88;43.84;98194.56;5057339;28;20314;-69
2021/03/16 09:23:13;;;;;;;3.10;1.10;;;;;;;10.86;44.36;98195.78;5059900;28;20055;-69
2021/03/16 09:25:47;;;;;;;4.88;1.80;;;;;;;10.97;45.15;98194.38;5056669;28;20041;-69
2021/03/16 09:28:15;;;;;;;4.63;1.80;;;;;;;10.95;44.50;98204.34;5058736;28;20117;-76
2021/03/16 09:30:48;;;;;;;2.05;1.35;;;;;;;10.67;44.49;98200.03;5058893;28;20033;-75
2021/03/16 09:33:19;;;;;;;3.70;1.58;;;;;;;10.50;45.65;98201.41;5060220;28;20104;-73
2021/03/16 09:35:56;;;;;;;6.60;2.53;;;;;;;10.39;45.49;98192.19;5057583;28;20045;-75
2021/03/16 09:38:25;;;;;;;3.78;1.63;;;;;;;10.29;45.78;98190.91;5059740;28;20041;-74
2021/03/16 09:40:51;;;;;;;2.22;1.90;;;;;;;10.42;46.41;98210.34;5059765;28;20037;-75
2021/03/16 09:43:25;;;;;;;4.55;1.88;;;;;;;10.42;45.59;98223.56;5060526;28;20029;-68
2021/03/16 09:45:59;;;;;;;5.00;2.30;;;;;;;10.41;46.53;98208.69;5059149;28;20044;-69
2021/03/16 09:48:26;;;;;;;5.30;1.70;;;;;;;10.52;44.83;98204.66;5093066;28;20315;-69
2021/03/16 09:50:53;;;;;;;8.00;1.90;;;;;;;10.39;45.77;98217.81;5058484;28;20267;-68
2021/03/16 09:53:19;;;;;;;7.53;2.22;;;;;;;10.35;46.24;98206.00;5060739;28;20092;-74
2021/03/16 09:55:54;;;;;;;6.93;2.30;;;;;;;10.11;46.15;98217.88;5059749;28;20051;-69
2021/03/16 09:58:21;;;;;;;14.80;3.75;;;;;;;9.97;46.77;98209.06;5064054;28;20223;-69
2021/03/16 10:00:50;;;;;;;5.93;2.40;;;;;;;10.20;46.90;98212.25;5062926;28;20318;-68
2021/03/16 10:03:19;;;;;;;6.13;2.13;;;;;;;10.19;47.45;98213.22;5064631;28;20033;-68
2021/03/16 10:05:46;;;;;;;4.65;2.50;;;;;;;10.26;47.34;98231.81;5062911;28;20083;-69
2021/03/16 10:08:22;;;;;;;6.63;2.92;;;;;;;10.25;48.24;98238.13;5062506;28;20119;-68
2021/03/16 10:10:49;;;;;;;7.63;2.50;;;;;;;10.20;47.69;98233.41;5063573;28;20032;-68
2021/03/16 10:13:14;;;;;;;6.85;3.15;;;;;;;10.24;48.45;98252.34;5061722;28;20060;-75
2021/03/16 10:15:45;;;;;;;3.58;2.28;;;;;;;9.98;48.90;98239.78;5045999;28;20105;-67
2021/03/16 10:18:18;;;;;;;4.47;2.50;;;;;;;9.44;50.52;98250.19;5063456;28;20088;-73
2021/03/16 10:20:46;;;;;;;6.55;3.47;;;;;;;9.34;51.86;98263.69;5063004;28;20064;-67
2021/03/16 10:23:20;;;;;;;4.22;3.00;;;;;;;9.28;51.29;98272.38;5062918;28;20323;-72
2021/03/16 10:25:54;;;;;;;3.22;2.85;;;;;;;9.28;51.79;98270.53;5061877;28;20055;-66
2021/03/16 10:28:36;;;;;;;6.05;2.67;;;;;;;9.43;52.54;98282.88;5063555;28;20048;-66
2021/03/16 10:31:15;;;;;;;2.83;2.33;;;;;;;9.33;52.42;98285.00;5062760;28;20045;-68
2021/03/16 10:33:42;;;;;;;4.95;2.40;;;;;;;9.22;52.90;98287.16;5062244;28;20021;-66
2021/03/16 10:36:09;;;;;;;5.75;3.05;;;;;;;9.12;53.21;98291.09;5060910;28;20025;-67
2021/03/16 10:38:36;;;;;;;5.13;3.10;;;;;;;9.33;53.31;98277.91;5054138;28;20024;-66
2021/03/16 10:41:03;;;;;;;6.40;4.63;;;;;;;9.34;52.61;98298.03;5050557;28;20737;-68
2021/03/16 10:43:29;;;;;;;6.63;4.78;;;;;;;9.28;53.22;98298.78;5051051;28;20109;-74
2021/03/16 10:45:57;;;;;;;5.60;3.70;;;;;;;8.79;54.29;98303.94;5050937;28;20246;-73
2021/03/16 10:48:23;;;;;;;10.98;4.82;;;;;;;9.00;55.79;98309.25;5067233;28;20050;-72
2021/03/16 10:50:49;;;;;;;8.48;2.95;;;;;;;8.79;55.25;98311.88;5050191;28;21508;-66
2021/03/16 10:53:16;;;;;;;6.22;2.90;;;;;;;8.77;54.30;98311.25;5052074;28;20263;-72
2021/03/16 10:55:42;;;;;;;4.45;2.95;;;;;;;8.52;54.85;98316.00;5050588;28;20211;-66
2021/03/16 10:58:08;;;;;;;4.22;2.72;;;;;;;8.67;53.69;98311.53;5050910;28;20323;-67
2021/03/16 11:00:33;;;;;;;4.20;2.72;;;;;;;8.63;55.27;98315.53;5048407;28;20045;-67
2021/03/16 11:02:59;;;;;;;11.13;2.70;;;;;;;8.48;55.99;98326.13;5052441;28;20052;-66
2021/03/16 11:05:25;;;;;;;5.90;3.25;;;;;;;8.29;58.44;98305.50;5053901;28;20048;-67
2021/03/16 11:07:51;;;;;;;4.05;2.97;;;;;;;8.27;57.56;98321.50;5049739;28;20027;-67
2021/03/16 11:10:18;;;;;;;5.85;4.15;;;;;;;8.51;57.44;98320.47;5049874;28;20060;-67
2021/03/16 11:12:44;;;;;;;4.90;3.80;;;;;;;8.32;58.06;98319.19;5051760;28;20091;-73
2021/03/16 11:15:10;;;;;;;6.20;2.90;;;;;;;8.29;58.50;98318.69;5050431;28;20037;-66
2021/03/16 11:17:37;;;;;;;3.97;2.88;;;;;;;7.97;58.95;98309.31;5050696;28;20091;-72
2021/03/16 11:20:05;;;;;;;3.08;2.35;;;;;;;8.10;60.06;98313.97;5050516;28;20041;-73
2021/03/16 11:22:31;;;;;;;7.10;3.13;;;;;;;7.83;61.12;98325.91;5084270;28;20070;-64
2021/03/16 11:24:57;;;;;;;4.60;2.60;;;;;;;7.69;62.24;98319.63;5049383;28;20061;-71
2021/03/16 11:27:22;;;;;;;3.53;2.85;;;;;;;7.68;63.18;98331.97;5050782;28;20067;-71
2021/03/16 11:29:48;;;;;;;4.93;3.60;;;;;;;7.69;63.22;98328.34;5051137;28;20096;-69
2021/03/16 11:32:13;;;;;;;5.13;3.55;;;;;;;7.76;64.27;98336.34;5049914;28;20358;-70
2021/03/16 11:34:39;;;;;;;4.80;3.50;;;;;;;7.85;62.99;98345.00;5051063;28;20049;-64
2021/03/16 11:37:05;;;;;;;10.05;4.00;;;;;;;7.60;65.28;98332.06;5054657;28;20029;-64
2021/03/16 11:39:31;;;;;;;7.53;4.32;;;;;;;7.45;65.96;98318.03;5051017;28;20041;-69
2021/03/16 11:41:58;;;;;;;11.68;3.50;;;;;;;7.53;66.27;98332.94;5052122;28;20074;-64
2021/03/16 11:44:24;;;;;;;8.60;3.15;;;;;;;7.48;65.72;98343.19;5053270;28;20025;-72